createdAt,value
2022-12-24T00:00:05.017Z,9.7
2022-12-24T00:10:07.281Z,9.5
2022-12-24T00:20:09.706Z,9.3
2022-12-24T00:30:11.889Z,9.4
2022-12-24T00:40:14.332Z,9.6
2022-12-24T00:50:16.361Z,9.6
2022-12-24T01:00:18.935Z,9.6
2022-12-24T01:10:21.173Z,9.7
2022-12-24T01:20:23.416Z,9.9
2022-12-24T01:30:25.105Z,9.8
2022-12-24T01:40:27.373Z,9.5
2022-12-24T01:50:29.748Z,9.7
2022-12-24T02:00:31.887Z,9.6
2022-12-24T02:10:33.743Z,9.7
2022-12-24T02:20:35.643Z,9.5
2022-12-24T02:30:38.224Z,9.6
2022-12-24T02:40:39.862Z,9.7
2022-12-24T02:50:41.626Z,9.5
2022-12-24T03:00:44.248Z,9.4
2022-12-24T03:10:46.391Z,9.3
2022-12-24T03:20:48.290Z,9
2022-12-24T03:30:50.254Z,9
2022-12-24T03:40:52.478Z,9.1
2022-12-24T03:50:54.768Z,9.1
2022-12-24T04:00:57.236Z,9.1
2022-12-24T04:11:01.342Z,9.2
2022-12-24T04:21:01.083Z,9.3
2022-12-24T04:31:03.699Z,9.2
2022-12-24T04:41:05.659Z,9.2
2022-12-24T04:51:07.369Z,9.2
2022-12-24T05:01:09.670Z,9.2
2022-12-24T05:11:11.305Z,9.2
2022-12-24T05:21:13.487Z,9.2
2022-12-24T05:31:15.743Z,9.2
2022-12-24T05:41:18.201Z,9.2
2022-12-24T05:51:20.414Z,9.2
2022-12-24T06:01:22.870Z,9.2
2022-12-24T06:11:24.438Z,9.2
2022-12-24T06:21:26.768Z,9.3
2022-12-24T06:31:28.617Z,9.3
2022-12-24T06:51:32.865Z,9.4
2022-12-24T07:01:35.406Z,9.4
2022-12-24T07:11:37.124Z,9.4
2022-12-24T07:21:38.947Z,9.4
2022-12-24T07:31:41.131Z,9.4
2022-12-24T07:41:43.129Z,9.4
2022-12-24T07:51:45.109Z,9.4
2022-12-24T08:01:47.665Z,9.5
2022-12-24T08:11:52.425Z,9.4
2022-12-24T08:21:51.827Z,9.6
2022-12-24T08:31:53.737Z,9.6
2022-12-24T08:51:57.814Z,9.6
2022-12-24T08:52:19.754Z,9.6
2022-12-24T09:12:08.951Z,9.7
2022-12-24T10:12:22.479Z,9.9
2022-12-24T10:22:24.692Z,10.2
2022-12-24T10:32:27.188Z,10.3
2022-12-24T10:42:28.981Z,10.3
2022-12-24T10:52:30.850Z,10.8
2022-12-24T11:32:40.047Z,10.3
2022-12-24T11:42:42.575Z,10.3
2022-12-24T12:12:48.390Z,10.7
2022-12-24T12:32:52.016Z,10.4
2022-12-24T12:52:55.923Z,10.4
2022-12-24T13:02:58.223Z,10.2
2022-12-24T13:23:03.179Z,10.2
2022-12-24T13:33:05.530Z,10.2
2022-12-24T13:43:07.969Z,10.1
2022-12-24T13:53:10.244Z,10.1
2022-12-24T14:13:14.444Z,9.9
2022-12-24T14:23:16.664Z,9.7
2022-12-24T14:33:18.887Z,9.7
2022-12-24T14:43:20.804Z,9.1
2022-12-24T15:03:25.883Z,9
2022-12-24T15:33:31.507Z,8.1
2022-12-24T16:23:42.156Z,7
2022-12-24T17:03:51.261Z,5.1
2022-12-24T17:13:53.466Z,5
2022-12-24T17:43:59.363Z,4.4
2022-12-24T17:54:01.751Z,4.3
2022-12-24T18:04:04.266Z,4.2
2022-12-24T19:14:18.238Z,3.4
2022-12-24T19:34:23.317Z,3.1
2022-12-24T19:54:27.277Z,3.1
2022-12-24T20:34:35.914Z,3.1
2022-12-24T20:44:38.309Z,3.4
2022-12-24T20:54:40.082Z,3.6
2022-12-24T21:04:42.193Z,3.6
2022-12-24T21:14:44.217Z,3.5
2022-12-24T21:24:46.678Z,3.7
2022-12-24T21:34:48.922Z,3.7
2022-12-24T21:54:52.313Z,3.6
2022-12-24T22:04:54.414Z,3.7
2022-12-24T22:14:57.024Z,3.9
2022-12-24T22:24:59.382Z,4.1
2022-12-24T22:35:01.128Z,5.1
2022-12-24T22:45:03.297Z,5.4
2022-12-24T22:55:05.475Z,5.3
2022-12-24T23:05:07.802Z,5.6
2022-12-24T23:15:09.794Z,5.6
2022-12-24T23:25:12.300Z,5.6
2022-12-24T23:35:14.639Z,5.3
2022-12-24T23:45:16.311Z,5.4
2022-12-24T23:55:18.176Z,5.2
